createdAt,value
2022-12-24T00:01:33.092Z,2.90
2022-12-24T00:03:59.560Z,2.80
2022-12-24T00:06:25.988Z,2.83
2022-12-24T00:08:52.486Z,2.15
2022-12-24T00:11:19.706Z,3.50
2022-12-24T00:13:46.301Z,3.22
2022-12-24T00:16:12.860Z,2.45
2022-12-24T00:18:45.547Z,2.60
2022-12-24T00:21:13.073Z,2.80
2022-12-24T00:23:40.423Z,2.83
2022-12-24T00:26:06.846Z,3.20
2022-12-24T00:28:33.191Z,3.35
2022-12-24T00:30:59.542Z,2.90
2022-12-24T00:33:26.062Z,2.85
2022-12-24T00:35:53.120Z,2.70
2022-12-24T00:38:19.616Z,3.58
2022-12-24T00:40:46.074Z,2.88
2022-12-24T00:43:12.550Z,3.08
2022-12-24T00:45:38.921Z,2.97
2022-12-24T00:48:05.605Z,2.27
2022-12-24T00:50:31.961Z,3.83
2022-12-24T00:52:58.337Z,3.90
2022-12-24T00:55:24.713Z,3.25
2022-12-24T00:57:51.092Z,3.65
2022-12-24T01:00:17.987Z,2.53
2022-12-24T01:02:44.848Z,2.22
2022-12-24T01:05:11.868Z,2.47
2022-12-24T01:07:44.051Z,3.33
2022-12-24T01:10:13.038Z,2.42
2022-12-24T01:12:39.527Z,2.90
2022-12-24T01:15:06.687Z,3.33
2022-12-24T01:17:34.142Z,3.65
2022-12-24T01:20:00.893Z,2.78
2022-12-24T01:22:27.412Z,2.78
2022-12-24T01:24:53.786Z,3.53
2022-12-24T01:27:20.263Z,2.95
2022-12-24T01:29:46.623Z,3.92
2022-12-24T01:32:12.978Z,3.08
2022-12-24T01:34:39.347Z,2.58
2022-12-24T01:37:05.762Z,2.63
2022-12-24T01:39:32.498Z,3.03
2022-12-24T01:42:17.587Z,3.70
2022-12-24T01:44:51.347Z,2.88
2022-12-24T01:47:19.888Z,3.28
2022-12-24T01:50:17.726Z,3.07
2022-12-24T01:52:44.268Z,2.40
2022-12-24T01:55:15.462Z,3.33
2022-12-24T01:57:46.432Z,2.60
2022-12-24T02:00:15.751Z,3.97
2022-12-24T02:02:46.377Z,3.33
2022-12-24T02:05:18.776Z,2.88
2022-12-24T02:07:46.399Z,3.38
2022-12-24T02:10:14.109Z,3.65
2022-12-24T02:12:42.145Z,2.90
2022-12-24T02:15:11.462Z,3.37
2022-12-24T02:17:49.632Z,3.50
2022-12-24T02:20:50.062Z,4.38
2022-12-24T02:23:35.386Z,3.13
2022-12-24T02:26:52.911Z,3.45
2022-12-24T02:29:47.308Z,3.57
2022-12-24T02:32:22.879Z,3.97
2022-12-24T02:35:02.419Z,2.30
2022-12-24T02:37:34.948Z,2.50
2022-12-24T02:40:13.830Z,2.78
2022-12-24T02:42:46.426Z,3.80
2022-12-24T02:45:28.984Z,3.53
2022-12-24T02:47:56.396Z,3.28
2022-12-24T02:50:23.718Z,3.13
2022-12-24T02:52:50.788Z,3.85
2022-12-24T02:55:19.968Z,2.83
2022-12-24T02:58:02.548Z,2.35
2022-12-24T03:00:40.882Z,4.38
2022-12-24T03:03:28.516Z,2.42
2022-12-24T03:06:20.167Z,2.90
2022-12-24T03:08:58.997Z,2.80
2022-12-24T03:11:25.784Z,3.63
2022-12-24T03:13:55.155Z,3.30
2022-12-24T03:16:24.828Z,2.10
2022-12-24T03:18:54.308Z,2.58
2022-12-24T03:21:35.592Z,2.87
2022-12-24T03:24:02.556Z,2.65
2022-12-24T03:26:31.049Z,2.80
2022-12-24T03:28:57.485Z,2.47
2022-12-24T03:31:24.083Z,2.53
2022-12-24T03:33:50.785Z,2.13
2022-12-24T03:36:17.374Z,3.00
2022-12-24T03:38:43.890Z,2.65
2022-12-24T03:41:10.390Z,2.70
2022-12-24T03:43:36.774Z,2.53
2022-12-24T03:46:06.216Z,2.27
2022-12-24T03:48:35.146Z,2.85
2022-12-24T03:51:02.543Z,2.78
2022-12-24T03:53:28.933Z,3.35
2022-12-24T03:55:55.308Z,2.72
2022-12-24T03:58:21.657Z,3.07
2022-12-24T04:00:48.025Z,3.25
2022-12-24T04:03:14.596Z,4.43
2022-12-24T04:05:41.066Z,3.17
2022-12-24T04:08:07.384Z,3.20
2022-12-24T04:10:33.725Z,3.93
2022-12-24T04:13:00.103Z,4.35
2022-12-24T04:15:26.572Z,2.97
2022-12-24T04:17:52.973Z,3.25
2022-12-24T04:20:19.592Z,3.30
2022-12-24T04:22:45.988Z,3.97
2022-12-24T04:25:12.305Z,3.75
2022-12-24T04:27:38.694Z,3.67
2022-12-24T04:30:05.801Z,2.83
2022-12-24T04:32:32.176Z,3.13
2022-12-24T04:34:58.505Z,3.53
2022-12-24T04:37:24.931Z,4.32
2022-12-24T04:39:51.308Z,3.90
2022-12-24T04:42:17.655Z,2.97
2022-12-24T04:44:44.063Z,2.60
2022-12-24T04:47:10.887Z,2.83
2022-12-24T04:49:37.369Z,2.20
2022-12-24T04:52:03.757Z,3.28
2022-12-24T04:54:30.118Z,3.40
2022-12-24T04:56:56.433Z,3.10
2022-12-24T04:59:22.789Z,3.03
2022-12-24T05:01:49.285Z,3.45
2022-12-24T05:04:15.681Z,2.65
2022-12-24T05:06:42.069Z,3.20
2022-12-24T05:09:08.418Z,3.13
2022-12-24T05:11:34.833Z,2.80
2022-12-24T05:14:01.275Z,3.13
2022-12-24T05:16:27.697Z,2.50
2022-12-24T05:18:54.508Z,2.40
2022-12-24T05:21:23.244Z,3.40
2022-12-24T05:24:08.595Z,2.60
2022-12-24T05:26:37.726Z,3.13
2022-12-24T05:29:05.537Z,3.08
2022-12-24T05:31:33.755Z,2.38
2022-12-24T05:34:01.290Z,3.60
2022-12-24T05:36:27.862Z,2.17
2022-12-24T05:38:54.289Z,2.60
2022-12-24T05:41:20.802Z,3.00
2022-12-24T05:43:47.342Z,3.42
2022-12-24T05:46:16.790Z,2.97
2022-12-24T05:48:43.207Z,2.70
2022-12-24T05:51:12.616Z,2.83
2022-12-24T05:53:40.208Z,2.47
2022-12-24T05:56:13.002Z,2.83
2022-12-24T05:58:40.607Z,2.92
2022-12-24T06:01:08.330Z,4.47
2022-12-24T06:03:34.814Z,3.72
2022-12-24T06:06:03.366Z,2.58
2022-12-24T06:08:31.212Z,3.38
2022-12-24T06:11:03.688Z,3.30
2022-12-24T06:13:31.242Z,3.63
2022-12-24T06:15:59.714Z,3.22
2022-12-24T06:18:26.748Z,2.78
2022-12-24T06:20:55.871Z,3.03
2022-12-24T06:23:22.970Z,3.10
2022-12-24T06:25:49.543Z,3.10
2022-12-24T06:28:16.472Z,3.15
2022-12-24T06:30:47.610Z,3.83
2022-12-24T06:33:14.584Z,4.10
2022-12-24T06:35:41.380Z,3.85
2022-12-24T06:38:07.768Z,3.30
2022-12-24T06:40:34.094Z,3.80
2022-12-24T06:43:00.490Z,4.15
2022-12-24T06:45:26.901Z,3.33
2022-12-24T06:47:53.301Z,3.13
2022-12-24T06:50:19.630Z,3.30
2022-12-24T06:52:46.044Z,4.38
2022-12-24T06:55:12.381Z,3.65
2022-12-24T06:57:38.776Z,3.70
2022-12-24T07:00:07.565Z,4.97
2022-12-24T07:02:34.036Z,4.97
2022-12-24T07:05:00.559Z,4.38
2022-12-24T07:07:26.992Z,4.63
2022-12-24T07:09:53.329Z,3.80
2022-12-24T07:12:19.650Z,4.15
2022-12-24T07:14:45.991Z,4.17
2022-12-24T07:17:12.526Z,4.70
2022-12-24T07:19:38.913Z,3.83
2022-12-24T07:22:10.216Z,4.03
2022-12-24T07:24:39.828Z,4.05
2022-12-24T07:27:06.202Z,4.20
2022-12-24T07:29:32.526Z,4.25
2022-12-24T07:31:59.006Z,3.88
2022-12-24T07:34:25.398Z,3.50
2022-12-24T07:36:51.821Z,4.30
2022-12-24T07:39:18.198Z,3.83
2022-12-24T07:41:44.595Z,5.32
2022-12-24T07:44:14.728Z,3.80
2022-12-24T07:46:41.285Z,3.80
2022-12-24T07:49:08.006Z,4.57
2022-12-24T07:51:34.349Z,3.00
2022-12-24T07:54:00.715Z,4.35
2022-12-24T07:56:27.136Z,3.25
2022-12-24T07:58:53.471Z,3.45
2022-12-24T08:01:19.924Z,4.57
2022-12-24T08:03:46.708Z,4.67
2022-12-24T08:06:13.231Z,4.43
2022-12-24T08:08:39.654Z,4.90
2022-12-24T08:11:06.893Z,4.97
2022-12-24T08:13:33.682Z,4.60
2022-12-24T08:16:00.155Z,4.43
2022-12-24T08:18:26.606Z,3.67
2022-12-24T08:20:52.987Z,4.50
2022-12-24T08:23:19.319Z,3.60
2022-12-24T08:25:47.181Z,3.95
2022-12-24T08:28:16.467Z,3.57
2022-12-24T08:30:43.452Z,3.63
2022-12-24T08:33:10.357Z,3.28
2022-12-24T08:35:37.172Z,4.75
2022-12-24T08:38:03.658Z,2.92
2022-12-24T08:40:30.083Z,4.00
2022-12-24T08:42:56.691Z,3.67
2022-12-24T08:45:23.132Z,4.18
2022-12-24T08:47:49.533Z,3.30
2022-12-24T08:50:16.184Z,3.83
2022-12-24T08:52:42.569Z,3.40
2022-12-24T08:55:09.214Z,4.57
2022-12-24T08:57:37.273Z,4.20
2022-12-24T09:00:06.692Z,4.10
2022-12-24T09:02:33.405Z,4.40
2022-12-24T09:04:59.836Z,3.83
2022-12-24T09:07:26.352Z,3.60
2022-12-24T09:09:52.743Z,3.92
2022-12-24T09:12:19.132Z,3.58
2022-12-24T09:14:45.635Z,3.75
2022-12-24T09:17:12.020Z,3.97
2022-12-24T09:19:38.587Z,4.20
2022-12-24T09:22:04.946Z,3.60
2022-12-24T09:24:31.706Z,4.10
2022-12-24T09:26:58.330Z,4.70
2022-12-24T09:29:25.121Z,3.97
2022-12-24T09:31:51.677Z,4.57
2022-12-24T09:34:18.083Z,3.70
2022-12-24T09:36:46.145Z,4.38
2022-12-24T09:39:12.900Z,3.47
2022-12-24T09:42:06.040Z,3.60
2022-12-24T09:44:47.195Z,3.40
2022-12-24T09:47:26.316Z,3.42
2022-12-24T09:49:56.651Z,4.63
2022-12-24T09:52:45.505Z,4.05
2022-12-24T09:55:25.400Z,3.80
2022-12-24T09:57:54.508Z,4.40
2022-12-24T10:00:24.394Z,3.60
2022-12-24T10:02:51.106Z,3.35
2022-12-24T10:05:22.706Z,3.22
2022-12-24T10:08:30.553Z,3.57
2022-12-24T10:11:38.631Z,3.70
2022-12-24T10:14:26.363Z,4.03
2022-12-24T10:17:21.562Z,3.30
2022-12-24T10:19:59.584Z,3.25
2022-12-24T10:22:58.065Z,3.77
2022-12-24T10:25:49.476Z,3.13
2022-12-24T10:28:20.530Z,3.53
2022-12-24T10:30:50.149Z,3.88
2022-12-24T10:33:26.514Z,3.10
2022-12-24T10:35:56.363Z,3.67
2022-12-24T10:38:22.909Z,3.10
2022-12-24T10:40:52.976Z,3.00
2022-12-24T10:43:22.225Z,3.20
2022-12-24T10:45:56.087Z,3.35
2022-12-24T10:48:33.394Z,3.20
2022-12-24T10:51:06.262Z,2.92
2022-12-24T10:54:00.516Z,3.00
2022-12-24T10:56:28.120Z,3.90
2022-12-24T10:58:55.499Z,2.88
2022-12-24T11:01:49.718Z,2.73
2022-12-24T11:04:24.640Z,4.15
2022-12-24T11:07:03.012Z,3.95
2022-12-24T11:09:32.971Z,2.80
2022-12-24T11:12:08.416Z,4.00
2022-12-24T11:14:38.739Z,3.93
2022-12-24T11:17:05.800Z,2.58
2022-12-24T11:19:35.391Z,3.95
2022-12-24T11:22:22.805Z,3.63
2022-12-24T11:24:57.867Z,3.65
2022-12-24T11:27:38.818Z,3.70
2022-12-24T11:30:30.823Z,4.43
2022-12-24T11:33:00.042Z,2.75
2022-12-24T11:35:27.593Z,4.10
2022-12-24T11:37:59.859Z,2.95
2022-12-24T11:40:35.483Z,3.43
2022-12-24T11:43:03.613Z,3.33
2022-12-24T11:45:32.453Z,3.53
2022-12-24T11:48:00.101Z,2.88
2022-12-24T11:50:29.678Z,2.92
2022-12-24T11:53:19.869Z,2.60
2022-12-24T11:55:54.981Z,2.72
2022-12-24T11:58:42.854Z,2.22
2022-12-24T12:01:21.787Z,2.40
2022-12-24T12:04:05.024Z,2.05
2022-12-24T12:06:34.177Z,2.90
2022-12-24T12:09:05.779Z,2.28
2022-12-24T12:11:35.560Z,2.22
2022-12-24T12:14:03.846Z,2.80
2022-12-24T12:17:03.735Z,2.20
2022-12-24T12:19:38.400Z,2.37
2022-12-24T12:22:11.393Z,3.40
2022-12-24T12:24:45.502Z,2.45
2022-12-24T12:27:20.427Z,2.13
2022-12-24T12:29:55.604Z,2.53
2022-12-24T12:32:38.999Z,1.83
2022-12-24T12:35:14.128Z,1.40
2022-12-24T12:37:45.442Z,3.05
2022-12-24T12:40:17.613Z,1.65
2022-12-24T12:43:01.367Z,1.90
2022-12-24T12:45:49.710Z,2.17
2022-12-24T12:48:24.923Z,2.25
2022-12-24T12:51:04.773Z,2.35
2022-12-24T12:54:14.164Z,1.90
2022-12-24T12:56:48.427Z,2.30
2022-12-24T12:59:14.838Z,2.37
2022-12-24T13:01:54.285Z,2.25
2022-12-24T13:04:39.571Z,2.55
2022-12-24T13:07:38.381Z,2.33
2022-12-24T13:10:41.740Z,2.30
2022-12-24T13:13:39.377Z,3.03
2022-12-24T13:16:33.922Z,2.22
2022-12-24T13:19:38.457Z,2.35
2022-12-24T13:22:13.501Z,1.80
2022-12-24T13:24:40.052Z,2.45
2022-12-24T13:27:17.428Z,2.57
2022-12-24T13:30:07.266Z,2.45
2022-12-24T13:32:51.345Z,2.72
2022-12-24T13:35:20.628Z,2.13
2022-12-24T13:37:48.866Z,2.45
2022-12-24T13:40:15.792Z,1.87
2022-12-24T13:43:06.470Z,1.92
2022-12-24T13:45:38.996Z,2.22
2022-12-24T13:48:11.176Z,2.63
2022-12-24T13:50:52.848Z,2.90
2022-12-24T13:53:41.973Z,2.77
2022-12-24T13:56:14.420Z,2.38
2022-12-24T13:58:45.502Z,2.40
2022-12-24T14:01:16.321Z,1.92
2022-12-24T14:03:45.503Z,1.80
2022-12-24T14:06:23.353Z,2.77
2022-12-24T14:08:53.431Z,2.28
2022-12-24T14:11:22.633Z,2.03
2022-12-24T14:13:48.977Z,2.05
2022-12-24T14:16:18.791Z,2.60
2022-12-24T14:19:25.073Z,2.27
2022-12-24T14:22:18.601Z,2.22
2022-12-24T14:24:53.633Z,2.88
2022-12-24T14:27:25.604Z,2.45
2022-12-24T14:29:57.801Z,2.63
2022-12-24T14:32:24.177Z,2.03
2022-12-24T14:35:21.628Z,2.50
2022-12-24T14:38:00.491Z,2.13
2022-12-24T14:40:30.448Z,2.20
2022-12-24T14:43:14.263Z,2.50
2022-12-24T14:45:51.717Z,2.17
2022-12-24T14:48:34.344Z,3.13
2022-12-24T14:51:06.648Z,3.25
2022-12-24T14:53:59.086Z,2.80
2022-12-24T14:56:25.644Z,3.40
2022-12-24T14:58:52.386Z,1.57
2022-12-24T15:01:26.529Z,2.95
2022-12-24T15:04:09.305Z,3.15
2022-12-24T15:06:49.233Z,2.63
2022-12-24T15:09:20.202Z,2.80
2022-12-24T15:11:49.407Z,3.07
2022-12-24T15:14:16.493Z,2.90
2022-12-24T15:16:54.625Z,2.65
2022-12-24T15:19:27.105Z,7.93
2022-12-24T15:21:54.830Z,10.43
2022-12-24T15:24:36.646Z,14.17
2022-12-24T15:27:15.296Z,7.70
2022-12-24T15:29:47.415Z,5.85
2022-12-24T15:32:15.864Z,4.88
2022-12-24T15:34:44.804Z,4.88
2022-12-24T15:37:29.069Z,3.13
2022-12-24T15:39:58.011Z,3.05
2022-12-24T15:42:26.173Z,2.97
2022-12-24T15:45:12.917Z,3.40
2022-12-24T15:47:47.255Z,3.13
2022-12-24T15:50:28.389Z,2.73
2022-12-24T15:53:19.471Z,3.70
2022-12-24T15:55:45.471Z,2.97
2022-12-24T15:58:25.558Z,3.80
2022-12-24T16:01:14.317Z,3.95
2022-12-24T16:04:01.492Z,3.20
2022-12-24T16:06:28.395Z,3.33
2022-12-24T16:08:56.403Z,4.00
2022-12-24T16:11:24.709Z,3.97
2022-12-24T16:13:51.097Z,4.55
2022-12-24T16:16:32.909Z,5.03
2022-12-24T16:19:01.169Z,4.07
2022-12-24T16:21:34.518Z,4.18
2022-12-24T16:24:15.169Z,4.65
2022-12-24T16:26:41.573Z,3.80
2022-12-24T16:29:08.453Z,3.07
2022-12-24T16:31:38.713Z,3.75
2022-12-24T16:34:05.886Z,3.85
2022-12-24T16:36:32.897Z,3.38
2022-12-24T16:39:18.579Z,3.80
2022-12-24T16:42:03.198Z,4.27
2022-12-24T16:44:29.674Z,4.28
2022-12-24T16:46:56.391Z,4.10
2022-12-24T16:49:23.460Z,5.57
2022-12-24T16:51:49.896Z,8.38
2022-12-24T16:54:16.318Z,9.77
2022-12-24T16:56:43.804Z,10.25
2022-12-24T16:59:18.719Z,9.50
2022-12-24T17:01:45.311Z,9.80
2022-12-24T17:04:11.906Z,8.25
2022-12-24T17:06:38.287Z,7.30
2022-12-24T17:09:05.456Z,6.32
2022-12-24T17:11:32.255Z,6.25
2022-12-24T17:13:58.618Z,5.85
2022-12-24T17:16:25.086Z,7.10
2022-12-24T17:18:52.101Z,5.10
2022-12-24T17:21:19.174Z,9.40
2022-12-24T17:23:45.852Z,6.30
2022-12-24T17:26:15.250Z,5.43
2022-12-24T17:28:42.953Z,7.63
2022-12-24T17:31:11.352Z,5.77
2022-12-24T17:33:37.810Z,7.55
2022-12-24T17:36:04.833Z,8.63
2022-12-24T17:38:31.230Z,9.30
2022-12-24T17:41:06.468Z,9.00
2022-12-24T17:43:36.502Z,15.27
2022-12-24T17:46:07.461Z,13.57
2022-12-24T17:48:33.925Z,11.35
2022-12-24T17:51:07.871Z,12.10
2022-12-24T17:53:35.386Z,12.90
2022-12-24T17:56:02.074Z,14.50
2022-12-24T17:58:29.680Z,15.45
2022-12-24T18:00:57.002Z,15.93
2022-12-24T18:03:23.905Z,16.80
2022-12-24T18:05:51.760Z,15.90
2022-12-24T18:08:19.340Z,15.07
2022-12-24T18:10:46.629Z,16.13
2022-12-24T18:13:19.108Z,14.05
2022-12-24T18:15:45.964Z,15.25
2022-12-24T18:18:12.364Z,14.57
2022-12-24T18:20:46.019Z,13.57
2022-12-24T18:23:13.259Z,12.45
2022-12-24T18:25:39.643Z,11.40
2022-12-24T18:28:05.985Z,10.38
2022-12-24T18:30:32.328Z,10.18
2022-12-24T18:33:00.329Z,12.30
2022-12-24T18:35:26.876Z,11.55
2022-12-24T18:37:53.431Z,10.60
2022-12-24T18:40:20.493Z,11.65
2022-12-24T18:42:46.880Z,12.00
2022-12-24T18:45:13.408Z,11.13
2022-12-24T18:47:39.779Z,11.20
2022-12-24T18:50:07.408Z,10.80
2022-12-24T18:52:35.075Z,11.18
2022-12-24T18:55:01.499Z,12.15
2022-12-24T18:57:27.940Z,11.90
2022-12-24T18:59:55.856Z,10.95
2022-12-24T19:02:22.319Z,10.63
2022-12-24T19:04:48.824Z,12.70
2022-12-24T19:07:15.246Z,12.10
2022-12-24T19:09:41.667Z,10.70
2022-12-24T19:12:08.136Z,12.93
2022-12-24T19:14:34.544Z,11.77
2022-12-24T19:17:00.923Z,10.13
2022-12-24T19:19:27.542Z,11.38
2022-12-24T19:21:53.937Z,9.30
2022-12-24T19:24:20.382Z,9.63
2022-12-24T19:26:46.789Z,10.15
2022-12-24T19:29:13.166Z,10.35
2022-12-24T19:31:40.601Z,10.57
2022-12-24T19:34:07.109Z,10.87
2022-12-24T19:36:34.600Z,10.90
2022-12-24T19:39:01.086Z,11.35
2022-12-24T19:41:29.306Z,11.45
2022-12-24T19:43:58.111Z,11.00
2022-12-24T19:46:33.133Z,11.40
2022-12-24T19:49:02.325Z,12.32
2022-12-24T19:51:29.435Z,11.95
2022-12-24T19:53:58.189Z,12.95
2022-12-24T19:56:26.258Z,11.98
2022-12-24T19:58:54.191Z,12.87
2022-12-24T20:01:23.509Z,12.35
2022-12-24T20:03:51.604Z,12.93
2022-12-24T20:06:21.605Z,12.07
2022-12-24T20:08:48.287Z,12.35
2022-12-24T20:11:17.616Z,12.37
2022-12-24T20:13:44.701Z,10.65
2022-12-24T20:16:18.044Z,10.45
2022-12-24T20:18:44.575Z,10.63
2022-12-24T20:21:13.152Z,12.10
2022-12-24T20:23:40.757Z,10.43
2022-12-24T20:26:10.608Z,10.82
2022-12-24T20:28:37.357Z,11.55
2022-12-24T20:31:16.928Z,11.50
2022-12-24T20:33:44.375Z,12.10
2022-12-24T20:36:12.169Z,11.27
2022-12-24T20:38:39.195Z,12.00
2022-12-24T20:41:06.401Z,11.43
2022-12-24T20:43:37.226Z,11.00
2022-12-24T20:46:06.529Z,11.57
2022-12-24T20:48:33.510Z,11.60
2022-12-24T20:50:59.950Z,11.45
2022-12-24T20:53:26.761Z,10.30
2022-12-24T20:55:53.910Z,16.58
2022-12-24T20:58:20.550Z,12.13
2022-12-24T21:00:48.185Z,9.53
2022-12-24T21:03:15.671Z,8.90
2022-12-24T21:05:42.573Z,10.60
2022-12-24T21:08:10.164Z,10.27
2022-12-24T21:10:37.643Z,10.13
2022-12-24T21:13:04.718Z,8.93
2022-12-24T21:15:35.031Z,9.88
2022-12-24T21:18:04.661Z,9.70
2022-12-24T21:20:31.367Z,9.82
2022-12-24T21:23:01.031Z,10.05
2022-12-24T21:25:27.990Z,9.43
2022-12-24T21:27:55.565Z,10.80
2022-12-24T21:30:22.526Z,10.18
2022-12-24T21:32:48.987Z,9.20
2022-12-24T21:35:15.655Z,9.10
2022-12-24T21:37:42.319Z,9.27
2022-12-24T21:40:09.979Z,9.80
2022-12-24T21:42:37.030Z,9.65
2022-12-24T21:45:04.839Z,9.18
2022-12-24T21:47:31.222Z,9.80
2022-12-24T21:50:16.372Z,10.30
2022-12-24T21:52:42.797Z,9.90
2022-12-24T21:55:09.162Z,10.15
2022-12-24T21:57:53.781Z,10.07
2022-12-24T22:00:30.502Z,9.32
2022-12-24T22:02:58.578Z,10.10
2022-12-24T22:05:26.192Z,9.65
2022-12-24T22:08:12.742Z,10.05
2022-12-24T22:10:58.049Z,10.25
2022-12-24T22:13:24.985Z,8.98
2022-12-24T22:15:53.121Z,9.20
2022-12-24T22:18:22.461Z,10.82
2022-12-24T22:20:49.218Z,13.25
2022-12-24T22:23:16.681Z,11.60
2022-12-24T22:25:46.119Z,10.98
2022-12-24T22:28:12.485Z,9.27
2022-12-24T22:30:40.908Z,9.98
2022-12-24T22:33:08.424Z,8.45
2022-12-24T22:35:41.236Z,8.25
2022-12-24T22:38:09.200Z,8.75
2022-12-24T22:40:36.031Z,9.47
2022-12-24T22:43:02.351Z,8.70
2022-12-24T22:45:28.789Z,8.63
2022-12-24T22:47:55.335Z,8.45
2022-12-24T22:50:21.859Z,7.28
2022-12-24T22:52:48.270Z,8.53
2022-12-24T22:55:14.645Z,8.07
2022-12-24T22:57:41.004Z,7.35
2022-12-24T23:00:13.653Z,8.13
2022-12-24T23:02:40.121Z,7.60
2022-12-24T23:05:06.876Z,7.80
2022-12-24T23:07:33.265Z,6.75
2022-12-24T23:09:59.857Z,7.03
2022-12-24T23:12:44.582Z,7.85
2022-12-24T23:15:11.515Z,7.63
2022-12-24T23:17:37.914Z,7.27
2022-12-24T23:20:04.757Z,7.53
2022-12-24T23:22:31.160Z,7.35
2022-12-24T23:24:57.589Z,7.88
2022-12-24T23:27:24.079Z,6.60
2022-12-24T23:29:50.492Z,6.37
2022-12-24T23:32:16.852Z,6.95
2022-12-24T23:34:43.499Z,7.22
2022-12-24T23:37:09.887Z,6.90
2022-12-24T23:39:36.275Z,6.18
2022-12-24T23:42:02.686Z,6.53
2022-12-24T23:44:32.518Z,6.47
2022-12-24T23:46:59.443Z,6.85
2022-12-24T23:49:26.741Z,5.95
2022-12-24T23:51:53.186Z,6.82
2022-12-24T23:54:19.718Z,6.60
2022-12-24T23:56:46.047Z,6.05
2022-12-24T23:59:12.441Z,6.05
